PTW weather

Los Gemelos Dorados Airport
Puerto Wilches, Santander Department, Colombia

Public forecast

Using degrees Celsius for public forecast. Weather courtesy of forecast.io.

METAR (pilot weather report)

Closest report is YariguĂ­es Airport, 20.5 nm (37.9 km) S. Retrieved 2019/06/20 23:00 UTC (59 minutes ago):

SKEJ 202300Z 02003KT 9999 FEW010 SCT200 32/25 A2974

TAF (pilot weather forecast)

Closest forecast is Palonegro Airport, 37.8 nm (69.9 km) ESE. Retrieved 2019/06/20 18:45 UTC (5 hours ago):

TAF TAF SKBG 201630Z 2018/2118 33007KT 9999 SCT015 SCT080 TEMPO 2021/2023 6000 DZRA SCT015CB BECMG 2106/2108 18004KT TEMPO 2109/2113 4000 BCFG DZ SCT007 TX28/2019Z TN18/2111Z